createdAt,value
2018-11-21T00:00:26.148Z,9.50
2018-11-21T00:02:54.314Z,9.07
2018-11-21T00:05:22.820Z,10.10
2018-11-21T00:07:51.013Z,10.53
2018-11-21T00:10:19.233Z,9.73
2018-11-21T00:13:13.182Z,11.00
2018-11-21T00:15:41.708Z,12.37
2018-11-21T00:18:09.889Z,10.27
2018-11-21T00:20:38.388Z,10.43
2018-11-21T00:23:06.957Z,10.37
2018-11-21T00:25:35.142Z,13.90
2018-11-21T00:28:03.342Z,12.07
2018-11-21T00:30:31.544Z,11.87
2018-11-21T00:33:00.008Z,11.37
2018-11-21T00:35:28.185Z,11.13
2018-11-21T00:37:56.451Z,8.57
2018-11-21T00:40:24.621Z,9.47
2018-11-21T00:42:52.824Z,10.30
2018-11-21T00:45:21.003Z,9.80
2018-11-21T00:47:49.205Z,9.83
2018-11-21T00:50:17.425Z,10.83
2018-11-21T00:52:45.602Z,10.83
2018-11-21T00:55:13.768Z,10.23
2018-11-21T00:57:42.280Z,9.03
2018-11-21T01:00:12.492Z,11.73
2018-11-21T01:02:40.674Z,9.00
2018-11-21T01:05:08.884Z,10.37
2018-11-21T01:07:37.242Z,11.10
2018-11-21T01:10:05.429Z,13.47
2018-11-21T01:12:33.653Z,12.47
2018-11-21T01:15:02.134Z,12.73
2018-11-21T01:17:30.338Z,11.13
2018-11-21T01:19:58.566Z,10.77
2018-11-21T01:22:26.732Z,12.23
2018-11-21T01:24:56.810Z,13.70
2018-11-21T01:27:24.987Z,10.70
2018-11-21T01:29:53.191Z,11.03
2018-11-21T01:32:21.383Z,11.67
2018-11-21T01:34:49.542Z,9.67
2018-11-21T01:37:18.101Z,10.53
2018-11-21T01:39:46.257Z,11.73
2018-11-21T01:42:14.441Z,11.40
2018-11-21T01:45:04.360Z,12.03
2018-11-21T01:47:32.842Z,13.27
2018-11-21T01:50:01.061Z,11.00
2018-11-21T01:52:29.213Z,10.40
2018-11-21T01:55:01.564Z,10.80
2018-11-21T01:57:29.773Z,11.27
2018-11-21T01:59:57.983Z,11.93
2018-11-21T02:02:26.462Z,11.33
2018-11-21T02:04:55.024Z,10.93
2018-11-21T02:07:23.191Z,10.73
2018-11-21T02:09:51.355Z,11.00
2018-11-21T02:12:19.580Z,10.47
2018-11-21T02:14:50.154Z,13.00
2018-11-21T02:17:18.374Z,11.40
2018-11-21T02:19:46.866Z,8.37
2018-11-21T02:22:15.071Z,9.37
2018-11-21T02:24:43.224Z,8.17
2018-11-21T02:27:11.449Z,7.93
2018-11-21T02:29:39.935Z,8.83
2018-11-21T02:32:08.382Z,9.37
2018-11-21T02:34:36.816Z,8.53
2018-11-21T02:37:05.262Z,8.40
2018-11-21T02:39:33.461Z,8.07
2018-11-21T02:42:01.627Z,8.90
2018-11-21T02:44:29.816Z,7.70
2018-11-21T02:46:58.010Z,8.33
2018-11-21T02:49:26.208Z,8.60
2018-11-21T02:51:54.724Z,7.77
2018-11-21T02:54:23.031Z,7.00
2018-11-21T02:57:16.776Z,7.87
2018-11-21T02:59:45.265Z,5.53
2018-11-21T03:02:13.780Z,7.87
2018-11-21T03:04:43.502Z,8.77
2018-11-21T03:07:12.114Z,7.43
2018-11-21T03:09:40.315Z,6.63
2018-11-21T03:12:09.138Z,6.70
2018-11-21T03:14:37.312Z,6.13
2018-11-21T03:17:05.717Z,7.17
2018-11-21T03:19:33.975Z,6.70
2018-11-21T03:22:02.647Z,6.27
2018-11-21T03:24:31.103Z,6.57
2018-11-21T03:26:59.255Z,6.33
2018-11-21T03:29:27.507Z,6.07
2018-11-21T03:31:55.718Z,6.10
2018-11-21T03:34:24.742Z,7.10
2018-11-21T03:36:54.235Z,6.53
2018-11-21T03:39:23.618Z,5.70
2018-11-21T03:41:52.158Z,7.07
2018-11-21T03:44:20.327Z,6.63
2018-11-21T03:46:48.943Z,7.23
2018-11-21T03:49:17.492Z,6.77
2018-11-21T03:51:45.828Z,6.87
2018-11-21T03:54:14.454Z,6.17
2018-11-21T03:56:43.023Z,7.90
2018-11-21T03:59:11.373Z,7.27
2018-11-21T04:01:39.957Z,6.93
2018-11-21T04:04:10.506Z,6.03
2018-11-21T04:06:38.662Z,7.17
2018-11-21T04:09:12.072Z,6.13
2018-11-21T04:11:40.599Z,6.10
2018-11-21T04:14:09.952Z,6.50
2018-11-21T04:16:38.111Z,6.97
2018-11-21T04:19:06.299Z,7.60
2018-11-21T04:21:34.795Z,5.93
2018-11-21T04:24:03.017Z,6.93
2018-11-21T04:26:31.141Z,6.80
2018-11-21T04:28:59.328Z,5.50
2018-11-21T04:31:27.602Z,6.43
2018-11-21T04:33:55.706Z,5.83
2018-11-21T04:36:23.867Z,6.57
2018-11-21T04:38:52.090Z,6.33
2018-11-21T04:41:20.398Z,6.40
2018-11-21T04:43:48.574Z,7.17
2018-11-21T04:46:16.780Z,5.93
2018-11-21T04:48:45.032Z,6.73
2018-11-21T04:51:14.541Z,5.93
2018-11-21T04:53:42.736Z,5.27
2018-11-21T04:56:14.276Z,5.53
2018-11-21T04:58:42.723Z,5.30
2018-11-21T05:01:32.265Z,10.43
2018-11-21T05:04:03.378Z,5.93
2018-11-21T05:06:31.645Z,5.63
2018-11-21T05:09:01.348Z,6.03
2018-11-21T05:11:29.892Z,6.73
2018-11-21T05:13:58.049Z,5.60
2018-11-21T05:16:26.248Z,7.30
2018-11-21T05:18:54.430Z,6.00
2018-11-21T05:21:22.627Z,7.60
2018-11-21T05:23:50.808Z,6.23
2018-11-21T05:26:18.970Z,6.53
2018-11-21T05:28:47.514Z,8.50
2018-11-21T05:31:15.697Z,8.77
2018-11-21T05:33:44.323Z,9.07
2018-11-21T05:36:12.506Z,6.70
2018-11-21T05:38:40.662Z,7.70
2018-11-21T05:41:08.851Z,8.40
2018-11-21T05:43:37.375Z,7.63
2018-11-21T05:46:05.745Z,6.33
2018-11-21T05:48:33.942Z,7.47
2018-11-21T05:51:02.155Z,11.07
2018-11-21T05:53:30.694Z,8.77
2018-11-21T05:56:00.404Z,6.30
2018-11-21T05:59:01.190Z,7.00
2018-11-21T06:01:29.416Z,5.97
2018-11-21T06:03:57.566Z,6.60
2018-11-21T06:06:25.765Z,7.93
2018-11-21T06:08:53.910Z,7.43
2018-11-21T06:11:22.097Z,7.83
2018-11-21T06:13:50.271Z,7.63
2018-11-21T06:16:18.472Z,7.97
2018-11-21T06:19:08.024Z,7.17
2018-11-21T06:21:36.224Z,8.03
2018-11-21T06:24:04.988Z,10.20
2018-11-21T06:26:33.183Z,8.47
2018-11-21T06:29:01.383Z,7.97
2018-11-21T06:31:31.151Z,10.67
2018-11-21T06:37:28.548Z,9.03
2018-11-21T06:39:56.826Z,8.90
2018-11-21T06:42:26.446Z,9.57
2018-11-21T06:44:54.618Z,8.27
2018-11-21T06:47:25.990Z,9.63
2018-11-21T06:49:54.488Z,9.13
2018-11-21T06:52:22.981Z,9.30
2018-11-21T06:54:52.788Z,9.77
2018-11-21T06:57:21.320Z,11.10
2018-11-21T06:59:49.829Z,14.57
2018-11-21T07:02:19.328Z,13.83
2018-11-21T07:04:47.501Z,13.93
2018-11-21T07:07:16.068Z,12.13
2018-11-21T07:09:44.606Z,12.13
2018-11-21T07:12:12.809Z,11.50
2018-11-21T07:14:41.365Z,9.37
2018-11-21T07:17:09.554Z,9.57
2018-11-21T07:19:54.336Z,9.33
2018-11-21T07:22:22.473Z,8.90
2018-11-21T07:24:51.727Z,8.37
2018-11-21T07:27:19.894Z,9.80
2018-11-21T07:29:48.134Z,9.00
2018-11-21T07:32:23.887Z,10.67
2018-11-21T07:34:52.122Z,9.93
2018-11-21T07:37:21.037Z,11.53
2018-11-21T07:39:49.238Z,10.43
2018-11-21T07:42:17.453Z,12.13
2018-11-21T07:44:45.702Z,12.23
2018-11-21T07:47:14.455Z,12.77
2018-11-21T07:49:42.694Z,9.43
2018-11-21T07:52:11.169Z,10.63
2018-11-21T07:54:39.649Z,10.97
2018-11-21T07:57:37.863Z,14.00
2018-11-21T08:00:49.338Z,10.40
2018-11-21T08:03:18.176Z,9.27
2018-11-21T08:05:49.813Z,12.10
2018-11-21T08:08:41.281Z,12.77
2018-11-21T08:11:27.129Z,10.63
2018-11-21T08:14:14.523Z,12.10
2018-11-21T08:17:04.729Z,10.27
2018-11-21T08:19:50.928Z,11.80
2018-11-21T08:22:40.332Z,9.67
2018-11-21T08:25:24.014Z,11.33
2018-11-21T08:28:18.229Z,11.97
2018-11-21T08:30:47.815Z,10.93
2018-11-21T08:33:17.424Z,10.97
2018-11-21T08:35:46.028Z,12.17
2018-11-21T08:38:14.547Z,10.77
2018-11-21T08:40:43.873Z,9.60
2018-11-21T08:43:12.044Z,10.17
2018-11-21T08:45:40.482Z,10.80
2018-11-21T08:48:08.897Z,9.47
2018-11-21T08:50:37.051Z,9.43
2018-11-21T08:53:06.118Z,11.43
2018-11-21T08:55:34.329Z,10.30
2018-11-21T08:58:02.496Z,10.03
2018-11-21T09:00:30.728Z,10.57
2018-11-21T09:02:58.927Z,11.27
2018-11-21T09:05:27.366Z,11.23
2018-11-21T09:07:55.840Z,14.37
2018-11-21T09:12:51.500Z,11.37
2018-11-21T09:15:19.682Z,11.23
2018-11-21T09:17:48.198Z,10.17
2018-11-21T09:20:16.353Z,11.87
2018-11-21T09:22:44.549Z,10.90
2018-11-21T09:25:13.389Z,14.13
2018-11-21T09:28:12.450Z,14.20
2018-11-21T09:30:40.619Z,13.07
2018-11-21T09:33:10.332Z,12.10
2018-11-21T09:35:38.498Z,13.10
2018-11-21T09:38:06.682Z,16.00
2018-11-21T09:40:34.863Z,14.13
2018-11-21T09:43:03.106Z,14.67
2018-11-21T09:45:51.295Z,15.67
2018-11-21T09:48:19.496Z,17.80
2018-11-21T09:50:47.707Z,14.73
2018-11-21T09:53:16.180Z,16.37
2018-11-21T09:55:44.342Z,14.40
2018-11-21T09:58:12.536Z,14.90
2018-11-21T10:01:17.853Z,13.83
2018-11-21T10:03:46.337Z,15.60
2018-11-21T10:06:25.578Z,17.77
2018-11-21T10:08:59.367Z,14.63
2018-11-21T10:11:28.068Z,16.13
2018-11-21T10:13:56.257Z,15.67
2018-11-21T10:16:24.662Z,16.63
2018-11-21T10:18:55.141Z,13.70
2018-11-21T10:21:24.830Z,15.30
2018-11-21T10:23:53.008Z,16.93
2018-11-21T10:26:21.370Z,15.20
2018-11-21T10:28:50.338Z,15.23
2018-11-21T10:31:18.538Z,13.53
2018-11-21T10:33:46.731Z,14.27
2018-11-21T10:36:16.743Z,12.13
2018-11-21T10:38:44.954Z,14.20
2018-11-21T10:41:13.192Z,15.40
2018-11-21T10:43:41.409Z,14.90
2018-11-21T10:46:10.854Z,14.20
2018-11-21T10:48:39.035Z,14.43
2018-11-21T10:51:07.581Z,13.30
2018-11-21T10:53:38.582Z,12.73
2018-11-21T10:56:07.071Z,12.07
2018-11-21T10:58:36.819Z,14.50
2018-11-21T11:01:23.148Z,14.27
2018-11-21T11:04:10.680Z,12.40
2018-11-21T11:06:58.080Z,13.43
2018-11-21T11:09:40.873Z,16.30
2018-11-21T11:12:25.794Z,14.93
2018-11-21T11:15:25.901Z,12.17
2018-11-21T11:18:04.086Z,15.30
2018-11-21T11:20:54.469Z,15.17
2018-11-21T11:23:40.500Z,16.93
2018-11-21T11:26:26.599Z,14.83
2018-11-21T11:29:27.125Z,14.30
2018-11-21T11:32:13.240Z,12.57
2018-11-21T11:35:00.652Z,13.07
2018-11-21T11:37:53.950Z,13.73
2018-11-21T11:40:53.182Z,14.30
2018-11-21T11:43:39.191Z,12.50
2018-11-21T11:46:32.452Z,10.10
2018-11-21T11:49:07.511Z,13.60
2018-11-21T11:52:00.678Z,10.57
2018-11-21T11:54:46.549Z,9.93
2018-11-21T12:00:37.347Z,10.70
2018-11-21T12:03:26.298Z,9.43
2018-11-21T12:06:12.341Z,9.40
2018-11-21T12:09:17.825Z,9.47
2018-11-21T12:12:07.742Z,8.70
2018-11-21T12:14:59.807Z,8.70
2018-11-21T12:17:44.677Z,8.83
2018-11-21T12:20:32.048Z,7.67
2018-11-21T12:23:22.468Z,7.30
2018-11-21T12:26:10.587Z,9.63
2018-11-21T12:28:59.013Z,8.90
2018-11-21T12:31:46.424Z,11.57
2018-11-21T12:34:37.767Z,10.67
2018-11-21T12:37:28.310Z,10.10
2018-11-21T12:40:27.915Z,10.17
2018-11-21T12:43:13.587Z,9.37
2018-11-21T12:46:10.439Z,10.70
2018-11-21T12:49:07.064Z,11.07
2018-11-21T12:52:03.587Z,15.93
2018-11-21T12:54:50.254Z,14.77
2018-11-21T12:57:36.158Z,16.83
2018-11-21T13:00:22.618Z,17.07
2018-11-21T13:06:04.899Z,15.67
2018-11-21T13:08:52.304Z,15.07
2018-11-21T13:11:38.057Z,15.57
2018-11-21T13:14:23.960Z,17.03
2018-11-21T13:17:01.132Z,15.00
2018-11-21T13:19:46.933Z,17.00
2018-11-21T13:22:39.224Z,16.57
2018-11-21T13:25:27.685Z,17.37
2018-11-21T13:28:13.874Z,16.13
2018-11-21T13:31:00.537Z,16.47
2018-11-21T13:33:46.407Z,17.50
2018-11-21T13:36:32.311Z,18.43
2018-11-21T13:39:18.388Z,18.03
2018-11-21T13:42:08.383Z,18.97
2018-11-21T13:45:01.711Z,18.83
2018-11-21T13:47:57.843Z,17.57
2018-11-21T13:50:48.682Z,20.13
2018-11-21T13:53:34.932Z,19.27
2018-11-21T13:56:04.756Z,19.87
2018-11-21T13:58:34.491Z,18.57
2018-11-21T14:01:02.936Z,19.63
2018-11-21T14:03:31.451Z,19.33
2018-11-21T14:05:59.718Z,21.07
2018-11-21T14:08:27.903Z,19.37
2018-11-21T14:10:56.399Z,18.20
2018-11-21T14:13:24.640Z,21.67
2018-11-21T14:15:52.822Z,22.40
2018-11-21T14:18:21.003Z,22.13
2018-11-21T14:20:49.210Z,21.70
2018-11-21T14:23:25.078Z,22.43
2018-11-21T14:25:56.562Z,22.97
2018-11-21T14:28:25.032Z,20.83
2018-11-21T14:30:53.528Z,21.90
2018-11-21T14:33:23.276Z,23.13
2018-11-21T14:35:56.016Z,25.83
2018-11-21T14:38:19.654Z,25.07
2018-11-21T14:40:47.883Z,29.83
2018-11-21T14:43:16.265Z,29.47
2018-11-21T14:45:44.446Z,30.07
2018-11-21T14:48:12.658Z,31.93
2018-11-21T14:50:41.242Z,27.23
2018-11-21T14:53:10.975Z,26.83
2018-11-21T14:55:39.182Z,26.00
2018-11-21T14:58:07.357Z,27.77
2018-11-21T15:00:35.656Z,24.47
2018-11-21T15:03:04.187Z,25.87
2018-11-21T15:05:32.680Z,23.67
2018-11-21T15:08:00.930Z,27.10
2018-11-21T15:10:30.476Z,24.73
2018-11-21T15:12:58.670Z,27.50
2018-11-21T15:15:26.873Z,26.90
2018-11-21T15:18:00.988Z,25.40
2018-11-21T15:20:29.211Z,22.87
2018-11-21T15:23:00.848Z,26.17
2018-11-21T15:25:29.531Z,24.33
